sensor_id;sensor_type;location;lat;lon;timestamp;P1;durP1;ratioP1;P2;durP2;ratioP2
4521;SDS011;2273;48.464;11.926;2023-04-06T00:00:47;13.53;;;8.43;;
4521;SDS011;2273;48.464;11.926;2023-04-06T00:03:13;10.52;;;7.35;;
4521;SDS011;2273;48.464;11.926;2023-04-06T00:05:39;10.27;;;7.67;;
4521;SDS011;2273;48.464;11.926;2023-04-06T00:08:05;10.80;;;7.10;;
4521;SDS011;2273;48.464;11.926;2023-04-06T00:10:30;9.43;;;6.53;;
4521;SDS011;2273;48.464;11.926;2023-04-06T00:12:56;16.63;;;7.80;;
4521;SDS011;2273;48.464;11.926;2023-04-06T00:15:22;10.90;;;7.43;;
4521;SDS011;2273;48.464;11.926;2023-04-06T00:17:48;11.23;;;6.80;;
4521;SDS011;2273;48.464;11.926;2023-04-06T00:20:14;14.63;;;7.80;;
4521;SDS011;2273;48.464;11.926;2023-04-06T00:22:40;11.40;;;7.78;;
4521;SDS011;2273;48.464;11.926;2023-04-06T00:25:06;10.33;;;7.27;;
4521;SDS011;2273;48.464;11.926;2023-04-06T00:27:31;10.50;;;7.40;;
4521;SDS011;2273;48.464;11.926;2023-04-06T00:29:57;10.60;;;7.70;;
4521;SDS011;2273;48.464;11.926;2023-04-06T00:32:23;11.80;;;8.40;;
4521;SDS011;2273;48.464;11.926;2023-04-06T00:34:48;12.70;;;7.90;;
4521;SDS011;2273;48.464;11.926;2023-04-06T00:37:14;11.07;;;7.37;;
4521;SDS011;2273;48.464;11.926;2023-04-06T00:39:40;11.37;;;7.80;;
4521;SDS011;2273;48.464;11.926;2023-04-06T00:42:07;13.97;;;8.90;;
4521;SDS011;2273;48.464;11.926;2023-04-06T00:44:37;14.07;;;8.75;;
4521;SDS011;2273;48.464;11.926;2023-04-06T00:47:03;15.40;;;9.13;;
4521;SDS011;2273;48.464;11.926;2023-04-06T00:49:28;12.00;;;8.50;;
4521;SDS011;2273;48.464;11.926;2023-04-06T00:51:54;15.23;;;9.20;;
4521;SDS011;2273;48.464;11.926;2023-04-06T00:54:20;16.13;;;9.03;;
4521;SDS011;2273;48.464;11.926;2023-04-06T00:56:45;12.33;;;8.20;;
4521;SDS011;2273;48.464;11.926;2023-04-06T00:59:11;14.00;;;8.10;;
4521;SDS011;2273;48.464;11.926;2023-04-06T01:01:37;11.75;;;7.93;;
4521;SDS011;2273;48.464;11.926;2023-04-06T01:04:12;14.02;;;8.15;;
4521;SDS011;2273;48.464;11.926;2023-04-06T01:06:40;13.25;;;8.50;;
4521;SDS011;2273;48.464;11.926;2023-04-06T01:09:06;12.67;;;8.33;;
4521;SDS011;2273;48.464;11.926;2023-04-06T01:11:31;14.47;;;9.07;;
4521;SDS011;2273;48.464;11.926;2023-04-06T01:13:57;15.23;;;8.80;;
4521;SDS011;2273;48.464;11.926;2023-04-06T01:16:42;15.23;;;7.93;;
4521;SDS011;2273;48.464;11.926;2023-04-06T01:19:17;15.18;;;8.23;;
4521;SDS011;2273;48.464;11.926;2023-04-06T01:21:47;12.98;;;7.80;;
4521;SDS011;2273;48.464;11.926;2023-04-06T01:24:29;11.27;;;7.55;;
4521;SDS011;2273;48.464;11.926;2023-04-06T01:27:02;13.57;;;7.57;;
4521;SDS011;2273;48.464;11.926;2023-04-06T01:29:36;14.65;;;8.15;;
4521;SDS011;2273;48.464;11.926;2023-04-06T01:32:04;11.27;;;7.20;;
4521;SDS011;2273;48.464;11.926;2023-04-06T01:34:34;10.60;;;7.00;;
4521;SDS011;2273;48.464;11.926;2023-04-06T01:37:03;12.23;;;7.45;;
4521;SDS011;2273;48.464;11.926;2023-04-06T01:39:29;13.52;;;8.48;;
4521;SDS011;2273;48.464;11.926;2023-04-06T01:41:56;11.38;;;7.70;;
4521;SDS011;2273;48.464;11.926;2023-04-06T01:44:21;13.90;;;8.40;;
4521;SDS011;2273;48.464;11.926;2023-04-06T01:46:54;14.02;;;8.32;;
4521;SDS011;2273;48.464;11.926;2023-04-06T01:49:21;14.57;;;8.55;;
4521;SDS011;2273;48.464;11.926;2023-04-06T01:51:51;13.45;;;8.05;;
4521;SDS011;2273;48.464;11.926;2023-04-06T01:54:19;10.32;;;7.68;;
4521;SDS011;2273;48.464;11.926;2023-04-06T01:57:07;13.40;;;7.72;;
4521;SDS011;2273;48.464;11.926;2023-04-06T01:59:41;11.80;;;7.85;;
4521;SDS011;2273;48.464;11.926;2023-04-06T02:02:15;14.50;;;8.35;;
4521;SDS011;2273;48.464;11.926;2023-04-06T02:04:50;13.00;;;7.55;;
4521;SDS011;2273;48.464;11.926;2023-04-06T02:07:16;12.15;;;8.25;;
4521;SDS011;2273;48.464;11.926;2023-04-06T02:09:42;11.07;;;7.70;;
4521;SDS011;2273;48.464;11.926;2023-04-06T02:12:13;10.70;;;7.70;;
4521;SDS011;2273;48.464;11.926;2023-04-06T02:14:38;12.07;;;8.10;;
4521;SDS011;2273;48.464;11.926;2023-04-06T02:17:04;13.07;;;8.33;;
4521;SDS011;2273;48.464;11.926;2023-04-06T02:19:30;10.97;;;7.90;;
4521;SDS011;2273;48.464;11.926;2023-04-06T02:21:55;13.40;;;7.70;;
4521;SDS011;2273;48.464;11.926;2023-04-06T02:24:21;13.32;;;8.20;;
4521;SDS011;2273;48.464;11.926;2023-04-06T02:26:47;14.80;;;8.20;;
4521;SDS011;2273;48.464;11.926;2023-04-06T02:29:12;16.70;;;8.50;;
4521;SDS011;2273;48.464;11.926;2023-04-06T02:31:38;15.17;;;9.57;;
4521;SDS011;2273;48.464;11.926;2023-04-06T02:34:05;16.58;;;10.50;;
4521;SDS011;2273;48.464;11.926;2023-04-06T02:36:32;19.75;;;11.75;;
4521;SDS011;2273;48.464;11.926;2023-04-06T02:38:57;16.83;;;10.43;;
4521;SDS011;2273;48.464;11.926;2023-04-06T02:41:23;17.33;;;10.33;;
4521;SDS011;2273;48.464;11.926;2023-04-06T02:43:49;14.00;;;9.30;;
4521;SDS011;2273;48.464;11.926;2023-04-06T02:46:24;14.20;;;8.85;;
4521;SDS011;2273;48.464;11.926;2023-04-06T02:48:49;12.07;;;8.60;;
4521;SDS011;2273;48.464;11.926;2023-04-06T02:51:15;13.73;;;8.47;;
4521;SDS011;2273;48.464;11.926;2023-04-06T02:53:45;12.82;;;8.23;;
4521;SDS011;2273;48.464;11.926;2023-04-06T02:56:12;12.85;;;8.40;;
4521;SDS011;2273;48.464;11.926;2023-04-06T02:58:46;13.85;;;7.53;;
4521;SDS011;2273;48.464;11.926;2023-04-06T03:01:12;10.93;;;7.88;;
4521;SDS011;2273;48.464;11.926;2023-04-06T03:03:39;13.98;;;8.77;;
4521;SDS011;2273;48.464;11.926;2023-04-06T03:06:10;12.07;;;7.75;;
4521;SDS011;2273;48.464;11.926;2023-04-06T03:08:35;13.03;;;7.53;;
4521;SDS011;2273;48.464;11.926;2023-04-06T03:11:01;13.03;;;8.00;;
4521;SDS011;2273;48.464;11.926;2023-04-06T03:13:35;12.27;;;9.10;;
4521;SDS011;2273;48.464;11.926;2023-04-06T03:16:03;14.20;;;8.93;;
4521;SDS011;2273;48.464;11.926;2023-04-06T03:18:31;14.98;;;9.60;;
4521;SDS011;2273;48.464;11.926;2023-04-06T03:20:57;14.55;;;9.10;;
4521;SDS011;2273;48.464;11.926;2023-04-06T03:23:40;15.18;;;9.23;;
4521;SDS011;2273;48.464;11.926;2023-04-06T03:26:06;18.42;;;8.60;;
4521;SDS011;2273;48.464;11.926;2023-04-06T03:28:32;18.00;;;9.30;;
4521;SDS011;2273;48.464;11.926;2023-04-06T03:31:02;13.98;;;9.23;;
4521;SDS011;2273;48.464;11.926;2023-04-06T03:33:41;12.98;;;8.55;;
4521;SDS011;2273;48.464;11.926;2023-04-06T03:36:10;13.25;;;8.70;;
4521;SDS011;2273;48.464;11.926;2023-04-06T03:38:39;17.40;;;9.10;;
4521;SDS011;2273;48.464;11.926;2023-04-06T03:41:09;15.85;;;9.10;;
4521;SDS011;2273;48.464;11.926;2023-04-06T03:43:37;15.20;;;8.50;;
4521;SDS011;2273;48.464;11.926;2023-04-06T03:46:02;14.73;;;8.93;;
4521;SDS011;2273;48.464;11.926;2023-04-06T03:48:28;14.13;;;9.27;;
4521;SDS011;2273;48.464;11.926;2023-04-06T03:50:53;15.37;;;9.60;;
4521;SDS011;2273;48.464;11.926;2023-04-06T03:53:19;15.73;;;9.47;;
4521;SDS011;2273;48.464;11.926;2023-04-06T03:55:44;15.43;;;8.97;;
4521;SDS011;2273;48.464;11.926;2023-04-06T03:58:10;14.17;;;9.17;;
4521;SDS011;2273;48.464;11.926;2023-04-06T04:00:35;16.03;;;9.30;;
4521;SDS011;2273;48.464;11.926;2023-04-06T04:03:01;14.00;;;8.77;;
4521;SDS011;2273;48.464;11.926;2023-04-06T04:05:27;16.02;;;9.32;;
4521;SDS011;2273;48.464;11.926;2023-04-06T04:07:53;15.05;;;10.30;;
4521;SDS011;2273;48.464;11.926;2023-04-06T04:10:22;22.50;;;10.65;;
4521;SDS011;2273;48.464;11.926;2023-04-06T04:12:47;15.87;;;10.20;;
4521;SDS011;2273;48.464;11.926;2023-04-06T04:15:13;16.50;;;9.87;;
4521;SDS011;2273;48.464;11.926;2023-04-06T04:17:38;15.90;;;9.23;;
4521;SDS011;2273;48.464;11.926;2023-04-06T04:20:04;15.17;;;9.70;;
4521;SDS011;2273;48.464;11.926;2023-04-06T04:22:30;14.70;;;8.68;;
4521;SDS011;2273;48.464;11.926;2023-04-06T04:24:55;13.53;;;8.40;;
4521;SDS011;2273;48.464;11.926;2023-04-06T04:27:21;17.43;;;8.07;;
4521;SDS011;2273;48.464;11.926;2023-04-06T04:29:48;15.23;;;8.30;;
4521;SDS011;2273;48.464;11.926;2023-04-06T04:32:15;12.75;;;7.93;;
4521;SDS011;2273;48.464;11.926;2023-04-06T04:34:42;14.50;;;8.55;;
4521;SDS011;2273;48.464;11.926;2023-04-06T04:37:14;12.00;;;8.07;;
4521;SDS011;2273;48.464;11.926;2023-04-06T04:39:48;12.40;;;8.30;;
4521;SDS011;2273;48.464;11.926;2023-04-06T04:42:14;12.30;;;8.43;;
4521;SDS011;2273;48.464;11.926;2023-04-06T04:44:45;14.38;;;8.38;;
4521;SDS011;2273;48.464;11.926;2023-04-06T04:47:11;16.67;;;8.67;;
4521;SDS011;2273;48.464;11.926;2023-04-06T04:49:42;12.65;;;8.27;;
4521;SDS011;2273;48.464;11.926;2023-04-06T04:52:09;18.15;;;8.75;;
4521;SDS011;2273;48.464;11.926;2023-04-06T04:54:57;13.25;;;8.75;;
4521;SDS011;2273;48.464;11.926;2023-04-06T04:57:26;19.92;;;9.57;;
4521;SDS011;2273;48.464;11.926;2023-04-06T04:59:52;13.83;;;9.50;;
4521;SDS011;2273;48.464;11.926;2023-04-06T05:02:18;16.40;;;8.97;;
4521;SDS011;2273;48.464;11.926;2023-04-06T05:05:12;12.52;;;8.32;;
4521;SDS011;2273;48.464;11.926;2023-04-06T05:07:39;14.57;;;8.80;;
4521;SDS011;2273;48.464;11.926;2023-04-06T05:10:07;21.02;;;9.38;;
4521;SDS011;2273;48.464;11.926;2023-04-06T05:12:39;20.73;;;10.05;;
4521;SDS011;2273;48.464;11.926;2023-04-06T05:15:07;18.17;;;9.70;;
4521;SDS011;2273;48.464;11.926;2023-04-06T05:17:33;14.52;;;8.43;;
4521;SDS011;2273;48.464;11.926;2023-04-06T05:19:59;16.07;;;9.50;;
4521;SDS011;2273;48.464;11.926;2023-04-06T05:22:26;14.95;;;9.23;;
4521;SDS011;2273;48.464;11.926;2023-04-06T05:25:05;19.38;;;9.80;;
4521;SDS011;2273;48.464;11.926;2023-04-06T05:27:31;17.55;;;10.55;;
4521;SDS011;2273;48.464;11.926;2023-04-06T05:30:00;20.45;;;10.75;;
4521;SDS011;2273;48.464;11.926;2023-04-06T05:32:27;20.08;;;11.23;;
4521;SDS011;2273;48.464;11.926;2023-04-06T05:34:53;17.90;;;11.00;;
4521;SDS011;2273;48.464;11.926;2023-04-06T05:37:18;22.57;;;10.47;;
4521;SDS011;2273;48.464;11.926;2023-04-06T05:39:44;14.37;;;8.60;;
4521;SDS011;2273;48.464;11.926;2023-04-06T05:42:10;15.18;;;10.20;;
4521;SDS011;2273;48.464;11.926;2023-04-06T05:44:56;15.90;;;9.25;;
4521;SDS011;2273;48.464;11.926;2023-04-06T05:47:22;16.23;;;9.53;;
4521;SDS011;2273;48.464;11.926;2023-04-06T05:49:53;19.95;;;9.80;;
4521;SDS011;2273;48.464;11.926;2023-04-06T05:52:28;17.67;;;10.10;;
4521;SDS011;2273;48.464;11.926;2023-04-06T05:54:54;18.63;;;10.13;;
4521;SDS011;2273;48.464;11.926;2023-04-06T05:57:19;22.20;;;9.90;;
4521;SDS011;2273;48.464;11.926;2023-04-06T05:59:45;21.00;;;9.70;;
4521;SDS011;2273;48.464;11.926;2023-04-06T06:02:12;24.80;;;11.95;;
4521;SDS011;2273;48.464;11.926;2023-04-06T06:04:42;21.52;;;10.88;;
4521;SDS011;2273;48.464;11.926;2023-04-06T06:07:07;22.40;;;12.10;;
4521;SDS011;2273;48.464;11.926;2023-04-06T06:09:40;22.50;;;12.80;;
4521;SDS011;2273;48.464;11.926;2023-04-06T06:12:15;19.83;;;11.48;;
4521;SDS011;2273;48.464;11.926;2023-04-06T06:14:41;23.47;;;13.10;;
4521;SDS011;2273;48.464;11.926;2023-04-06T06:17:07;23.17;;;12.40;;
4521;SDS011;2273;48.464;11.926;2023-04-06T06:19:33;25.02;;;12.23;;
4521;SDS011;2273;48.464;11.926;2023-04-06T06:22:02;18.25;;;11.15;;
4521;SDS011;2273;48.464;11.926;2023-04-06T06:24:28;21.10;;;11.57;;
4521;SDS011;2273;48.464;11.926;2023-04-06T06:26:54;22.40;;;12.65;;
4521;SDS011;2273;48.464;11.926;2023-04-06T06:29:24;27.05;;;14.13;;
4521;SDS011;2273;48.464;11.926;2023-04-06T06:31:50;37.40;;;13.17;;
4521;SDS011;2273;48.464;11.926;2023-04-06T06:34:15;19.70;;;12.40;;
4521;SDS011;2273;48.464;11.926;2023-04-06T06:36:41;22.92;;;13.45;;
4521;SDS011;2273;48.464;11.926;2023-04-06T06:39:09;17.73;;;12.05;;
4521;SDS011;2273;48.464;11.926;2023-04-06T06:41:35;24.10;;;12.00;;
4521;SDS011;2273;48.464;11.926;2023-04-06T06:44:01;24.15;;;12.20;;
4521;SDS011;2273;48.464;11.926;2023-04-06T06:46:27;24.00;;;12.77;;
4521;SDS011;2273;48.464;11.926;2023-04-06T06:48:53;21.40;;;13.27;;
4521;SDS011;2273;48.464;11.926;2023-04-06T06:51:18;26.73;;;12.07;;
4521;SDS011;2273;48.464;11.926;2023-04-06T06:53:44;27.53;;;14.70;;
4521;SDS011;2273;48.464;11.926;2023-04-06T06:56:09;21.70;;;13.37;;
4521;SDS011;2273;48.464;11.926;2023-04-06T06:58:35;26.20;;;13.67;;
4521;SDS011;2273;48.464;11.926;2023-04-06T07:01:00;22.60;;;12.97;;
4521;SDS011;2273;48.464;11.926;2023-04-06T07:03:28;21.50;;;12.98;;
4521;SDS011;2273;48.464;11.926;2023-04-06T07:05:54;21.40;;;13.77;;
4521;SDS011;2273;48.464;11.926;2023-04-06T07:08:22;20.13;;;13.02;;
4521;SDS011;2273;48.464;11.926;2023-04-06T07:10:49;24.85;;;13.85;;
4521;SDS011;2273;48.464;11.926;2023-04-06T07:13:17;20.17;;;12.48;;
4521;SDS011;2273;48.464;11.926;2023-04-06T07:15:44;19.80;;;12.90;;
4521;SDS011;2273;48.464;11.926;2023-04-06T07:18:11;19.17;;;12.50;;
4521;SDS011;2273;48.464;11.926;2023-04-06T07:20:36;20.70;;;11.83;;
4521;SDS011;2273;48.464;11.926;2023-04-06T07:23:02;26.93;;;11.50;;
4521;SDS011;2273;48.464;11.926;2023-04-06T07:25:28;21.90;;;12.60;;
4521;SDS011;2273;48.464;11.926;2023-04-06T07:27:54;16.52;;;11.32;;
4521;SDS011;2273;48.464;11.926;2023-04-06T07:30:20;18.25;;;11.10;;
4521;SDS011;2273;48.464;11.926;2023-04-06T07:32:47;21.98;;;11.35;;
4521;SDS011;2273;48.464;11.926;2023-04-06T07:35:14;19.10;;;10.88;;
4521;SDS011;2273;48.464;11.926;2023-04-06T07:37:40;18.58;;;11.70;;
4521;SDS011;2273;48.464;11.926;2023-04-06T07:40:07;17.58;;;10.40;;
4521;SDS011;2273;48.464;11.926;2023-04-06T07:42:33;18.05;;;9.75;;
4521;SDS011;2273;48.464;11.926;2023-04-06T07:44:59;14.53;;;9.90;;
4521;SDS011;2273;48.464;11.926;2023-04-06T07:47:24;20.70;;;10.47;;
4521;SDS011;2273;48.464;11.926;2023-04-06T07:49:50;15.03;;;9.67;;
4521;SDS011;2273;48.464;11.926;2023-04-06T07:52:15;15.33;;;10.43;;
4521;SDS011;2273;48.464;11.926;2023-04-06T07:54:42;17.65;;;10.38;;
4521;SDS011;2273;48.464;11.926;2023-04-06T07:57:08;17.90;;;10.07;;
4521;SDS011;2273;48.464;11.926;2023-04-06T07:59:33;15.70;;;9.90;;
4521;SDS011;2273;48.464;11.926;2023-04-06T08:01:59;17.53;;;11.10;;
4521;SDS011;2273;48.464;11.926;2023-04-06T08:04:24;18.53;;;10.60;;
4521;SDS011;2273;48.464;11.926;2023-04-06T08:06:50;14.20;;;9.67;;
4521;SDS011;2273;48.464;11.926;2023-04-06T08:09:15;15.00;;;9.73;;
4521;SDS011;2273;48.464;11.926;2023-04-06T08:11:41;23.97;;;10.93;;
4521;SDS011;2273;48.464;11.926;2023-04-06T08:14:06;19.33;;;10.00;;
4521;SDS011;2273;48.464;11.926;2023-04-06T08:16:32;11.70;;;8.70;;
4521;SDS011;2273;48.464;11.926;2023-04-06T08:18:57;16.27;;;10.57;;
4521;SDS011;2273;48.464;11.926;2023-04-06T08:21:23;17.27;;;9.83;;
4521;SDS011;2273;48.464;11.926;2023-04-06T08:23:48;18.20;;;9.40;;
4521;SDS011;2273;48.464;11.926;2023-04-06T08:26:13;15.10;;;9.73;;
4521;SDS011;2273;48.464;11.926;2023-04-06T08:28:39;15.53;;;9.10;;
4521;SDS011;2273;48.464;11.926;2023-04-06T08:31:05;17.40;;;10.00;;
4521;SDS011;2273;48.464;11.926;2023-04-06T08:33:30;16.40;;;9.93;;
4521;SDS011;2273;48.464;11.926;2023-04-06T08:35:56;16.33;;;10.33;;
4521;SDS011;2273;48.464;11.926;2023-04-06T08:38:22;13.93;;;9.53;;
4521;SDS011;2273;48.464;11.926;2023-04-06T08:40:47;16.60;;;10.47;;
4521;SDS011;2273;48.464;11.926;2023-04-06T08:43:14;15.43;;;10.40;;
4521;SDS011;2273;48.464;11.926;2023-04-06T08:45:42;14.43;;;9.33;;
4521;SDS011;2273;48.464;11.926;2023-04-06T08:48:08;15.07;;;9.97;;
4521;SDS011;2273;48.464;11.926;2023-04-06T08:50:34;15.67;;;9.70;;
4521;SDS011;2273;48.464;11.926;2023-04-06T08:53:00;16.63;;;9.03;;
4521;SDS011;2273;48.464;11.926;2023-04-06T08:55:26;15.63;;;9.50;;
4521;SDS011;2273;48.464;11.926;2023-04-06T08:57:52;17.70;;;10.90;;
4521;SDS011;2273;48.464;11.926;2023-04-06T09:00:20;15.03;;;10.07;;
4521;SDS011;2273;48.464;11.926;2023-04-06T09:02:45;15.50;;;9.57;;
4521;SDS011;2273;48.464;11.926;2023-04-06T09:05:11;16.70;;;9.67;;
4521;SDS011;2273;48.464;11.926;2023-04-06T09:07:36;17.47;;;10.20;;
4521;SDS011;2273;48.464;11.926;2023-04-06T09:10:03;14.60;;;9.40;;
4521;SDS011;2273;48.464;11.926;2023-04-06T09:12:30;18.43;;;10.40;;
4521;SDS011;2273;48.464;11.926;2023-04-06T09:14:56;15.10;;;10.20;;
4521;SDS011;2273;48.464;11.926;2023-04-06T09:17:27;14.10;;;9.13;;
4521;SDS011;2273;48.464;11.926;2023-04-06T09:19:53;13.50;;;9.20;;
4521;SDS011;2273;48.464;11.926;2023-04-06T09:22:19;16.20;;;10.30;;
4521;SDS011;2273;48.464;11.926;2023-04-06T09:24:46;12.83;;;9.80;;
4521;SDS011;2273;48.464;11.926;2023-04-06T09:27:12;14.33;;;11.00;;
4521;SDS011;2273;48.464;11.926;2023-04-06T09:29:38;13.77;;;10.37;;
4521;SDS011;2273;48.464;11.926;2023-04-06T09:32:04;13.43;;;10.07;;
4521;SDS011;2273;48.464;11.926;2023-04-06T09:34:30;15.23;;;10.90;;
4521;SDS011;2273;48.464;11.926;2023-04-06T09:36:56;13.33;;;9.83;;
4521;SDS011;2273;48.464;11.926;2023-04-06T09:39:21;15.00;;;10.10;;
4521;SDS011;2273;48.464;11.926;2023-04-06T09:41:51;14.30;;;9.80;;
4521;SDS011;2273;48.464;11.926;2023-04-06T09:44:17;16.03;;;9.30;;
4521;SDS011;2273;48.464;11.926;2023-04-06T09:46:44;13.90;;;9.83;;
4521;SDS011;2273;48.464;11.926;2023-04-06T09:49:11;17.07;;;10.50;;
4521;SDS011;2273;48.464;11.926;2023-04-06T09:51:37;13.80;;;9.87;;
4521;SDS011;2273;48.464;11.926;2023-04-06T09:54:04;16.90;;;11.20;;
4521;SDS011;2273;48.464;11.926;2023-04-06T09:56:31;13.97;;;9.33;;
4521;SDS011;2273;48.464;11.926;2023-04-06T09:59:02;13.77;;;10.47;;
4521;SDS011;2273;48.464;11.926;2023-04-06T10:01:30;13.63;;;10.03;;
4521;SDS011;2273;48.464;11.926;2023-04-06T10:04:21;18.37;;;10.17;;
4521;SDS011;2273;48.464;11.926;2023-04-06T10:06:52;13.37;;;9.47;;
4521;SDS011;2273;48.464;11.926;2023-04-06T10:09:18;14.57;;;9.53;;
4521;SDS011;2273;48.464;11.926;2023-04-06T10:11:45;14.50;;;9.77;;
4521;SDS011;2273;48.464;11.926;2023-04-06T10:14:12;12.70;;;9.00;;
4521;SDS011;2273;48.464;11.926;2023-04-06T10:16:38;14.20;;;10.03;;
4521;SDS011;2273;48.464;11.926;2023-04-06T10:19:10;13.50;;;9.50;;
4521;SDS011;2273;48.464;11.926;2023-04-06T10:21:48;14.30;;;10.20;;
4521;SDS011;2273;48.464;11.926;2023-04-06T10:24:16;14.33;;;10.63;;
4521;SDS011;2273;48.464;11.926;2023-04-06T10:26:42;14.77;;;10.00;;
4521;SDS011;2273;48.464;11.926;2023-04-06T10:29:07;15.70;;;10.67;;
4521;SDS011;2273;48.464;11.926;2023-04-06T10:31:39;14.23;;;10.60;;
4521;SDS011;2273;48.464;11.926;2023-04-06T10:34:05;17.97;;;11.00;;
4521;SDS011;2273;48.464;11.926;2023-04-06T10:36:32;15.27;;;10.23;;
4521;SDS011;2273;48.464;11.926;2023-04-06T10:38:59;13.47;;;10.50;;
4521;SDS011;2273;48.464;11.926;2023-04-06T10:41:33;17.33;;;12.40;;
4521;SDS011;2273;48.464;11.926;2023-04-06T10:44:05;15.53;;;10.80;;
4521;SDS011;2273;48.464;11.926;2023-04-06T10:46:31;17.00;;;10.77;;
4521;SDS011;2273;48.464;11.926;2023-04-06T10:48:57;15.53;;;10.90;;
4521;SDS011;2273;48.464;11.926;2023-04-06T10:51:27;15.57;;;11.13;;
4521;SDS011;2273;48.464;11.926;2023-04-06T10:53:53;15.47;;;10.53;;
4521;SDS011;2273;48.464;11.926;2023-04-06T10:56:21;16.07;;;11.07;;
4521;SDS011;2273;48.464;11.926;2023-04-06T10:58:48;16.57;;;11.37;;
4521;SDS011;2273;48.464;11.926;2023-04-06T11:01:19;15.37;;;11.03;;
4521;SDS011;2273;48.464;11.926;2023-04-06T11:03:55;15.37;;;11.20;;
4521;SDS011;2273;48.464;11.926;2023-04-06T11:06:26;15.77;;;11.70;;
4521;SDS011;2273;48.464;11.926;2023-04-06T11:08:56;17.43;;;12.03;;
4521;SDS011;2273;48.464;11.926;2023-04-06T11:11:23;17.60;;;11.40;;
4521;SDS011;2273;48.464;11.926;2023-04-06T11:13:55;18.97;;;12.50;;
4521;SDS011;2273;48.464;11.926;2023-04-06T11:16:22;17.80;;;12.07;;
4521;SDS011;2273;48.464;11.926;2023-04-06T11:21:43;18.47;;;11.97;;
4521;SDS011;2273;48.464;11.926;2023-04-06T11:24:14;18.73;;;12.00;;
4521;SDS011;2273;48.464;11.926;2023-04-06T11:26:51;18.00;;;12.33;;
4521;SDS011;2273;48.464;11.926;2023-04-06T11:29:22;17.73;;;11.80;;
4521;SDS011;2273;48.464;11.926;2023-04-06T11:31:51;15.93;;;12.03;;
4521;SDS011;2273;48.464;11.926;2023-04-06T11:34:18;17.87;;;12.20;;
4521;SDS011;2273;48.464;11.926;2023-04-06T11:36:45;15.83;;;10.80;;
4521;SDS011;2273;48.464;11.926;2023-04-06T11:39:12;17.50;;;12.27;;
4521;SDS011;2273;48.464;11.926;2023-04-06T11:41:39;20.87;;;13.00;;
4521;SDS011;2273;48.464;11.926;2023-04-06T11:44:05;14.03;;;11.07;;
4521;SDS011;2273;48.464;11.926;2023-04-06T11:46:30;16.27;;;12.60;;
4521;SDS011;2273;48.464;11.926;2023-04-06T11:49:01;17.93;;;12.53;;
4521;SDS011;2273;48.464;11.926;2023-04-06T11:51:27;16.90;;;12.47;;
4521;SDS011;2273;48.464;11.926;2023-04-06T11:53:53;16.87;;;11.60;;
4521;SDS011;2273;48.464;11.926;2023-04-06T11:56:29;15.40;;;11.20;;
4521;SDS011;2273;48.464;11.926;2023-04-06T11:58:55;17.63;;;12.13;;
4521;SDS011;2273;48.464;11.926;2023-04-06T12:01:23;16.23;;;11.23;;
4521;SDS011;2273;48.464;11.926;2023-04-06T12:03:49;13.80;;;10.33;;
4521;SDS011;2273;48.464;11.926;2023-04-06T12:06:16;15.80;;;11.90;;
4521;SDS011;2273;48.464;11.926;2023-04-06T12:08:41;14.17;;;10.80;;
4521;SDS011;2273;48.464;11.926;2023-04-06T12:11:07;15.50;;;11.73;;
4521;SDS011;2273;48.464;11.926;2023-04-06T12:13:33;16.77;;;12.00;;
4521;SDS011;2273;48.464;11.926;2023-04-06T12:15:58;18.20;;;12.10;;
4521;SDS011;2273;48.464;11.926;2023-04-06T12:18:23;16.73;;;11.10;;
4521;SDS011;2273;48.464;11.926;2023-04-06T12:20:49;18.30;;;11.03;;
4521;SDS011;2273;48.464;11.926;2023-04-06T12:23:14;22.10;;;15.40;;
4521;SDS011;2273;48.464;11.926;2023-04-06T12:25:40;14.80;;;11.53;;
4521;SDS011;2273;48.464;11.926;2023-04-06T12:28:06;15.93;;;11.53;;
4521;SDS011;2273;48.464;11.926;2023-04-06T12:30:32;17.80;;;12.27;;
4521;SDS011;2273;48.464;11.926;2023-04-06T12:32:57;15.77;;;11.23;;
4521;SDS011;2273;48.464;11.926;2023-04-06T12:35:23;15.93;;;11.23;;
4521;SDS011;2273;48.464;11.926;2023-04-06T12:37:48;14.93;;;11.57;;
4521;SDS011;2273;48.464;11.926;2023-04-06T12:40:14;15.30;;;11.60;;
4521;SDS011;2273;48.464;11.926;2023-04-06T12:42:40;14.40;;;10.30;;
4521;SDS011;2273;48.464;11.926;2023-04-06T12:45:07;14.67;;;11.00;;
4521;SDS011;2273;48.464;11.926;2023-04-06T12:47:35;15.00;;;11.53;;
4521;SDS011;2273;48.464;11.926;2023-04-06T12:50:01;17.33;;;10.47;;
4521;SDS011;2273;48.464;11.926;2023-04-06T12:52:27;16.67;;;10.43;;
4521;SDS011;2273;48.464;11.926;2023-04-06T12:54:55;14.20;;;11.33;;
4521;SDS011;2273;48.464;11.926;2023-04-06T12:57:21;21.37;;;10.70;;
4521;SDS011;2273;48.464;11.926;2023-04-06T12:59:47;15.43;;;11.50;;
4521;SDS011;2273;48.464;11.926;2023-04-06T13:02:12;12.77;;;10.37;;
4521;SDS011;2273;48.464;11.926;2023-04-06T13:04:38;15.30;;;11.90;;
4521;SDS011;2273;48.464;11.926;2023-04-06T13:07:03;14.33;;;10.80;;
4521;SDS011;2273;48.464;11.926;2023-04-06T13:09:29;14.63;;;11.00;;
4521;SDS011;2273;48.464;11.926;2023-04-06T13:11:54;14.17;;;10.40;;
4521;SDS011;2273;48.464;11.926;2023-04-06T13:14:20;12.10;;;9.37;;
4521;SDS011;2273;48.464;11.926;2023-04-06T13:16:46;16.57;;;10.63;;
4521;SDS011;2273;48.464;11.926;2023-04-06T13:19:11;14.40;;;10.40;;
4521;SDS011;2273;48.464;11.926;2023-04-06T13:21:37;14.10;;;9.63;;
4521;SDS011;2273;48.464;11.926;2023-04-06T13:24:02;16.37;;;11.57;;
4521;SDS011;2273;48.464;11.926;2023-04-06T13:26:30;15.80;;;11.30;;
4521;SDS011;2273;48.464;11.926;2023-04-06T13:28:55;15.23;;;11.33;;
4521;SDS011;2273;48.464;11.926;2023-04-06T13:31:21;13.93;;;10.47;;
4521;SDS011;2273;48.464;11.926;2023-04-06T13:33:47;15.87;;;10.57;;
4521;SDS011;2273;48.464;11.926;2023-04-06T13:36:12;15.73;;;10.60;;
4521;SDS011;2273;48.464;11.926;2023-04-06T13:38:38;14.27;;;10.13;;
4521;SDS011;2273;48.464;11.926;2023-04-06T13:41:04;12.83;;;9.77;;
4521;SDS011;2273;48.464;11.926;2023-04-06T13:43:30;13.30;;;10.20;;
4521;SDS011;2273;48.464;11.926;2023-04-06T13:45:56;14.57;;;10.90;;
4521;SDS011;2273;48.464;11.926;2023-04-06T13:48:24;15.87;;;11.30;;
4521;SDS011;2273;48.464;11.926;2023-04-06T13:50:51;16.33;;;11.60;;
4521;SDS011;2273;48.464;11.926;2023-04-06T13:53:16;14.23;;;11.30;;
4521;SDS011;2273;48.464;11.926;2023-04-06T13:55:42;12.83;;;10.33;;
4521;SDS011;2273;48.464;11.926;2023-04-06T13:58:08;17.10;;;11.77;;
4521;SDS011;2273;48.464;11.926;2023-04-06T14:00:33;13.60;;;11.53;;
4521;SDS011;2273;48.464;11.926;2023-04-06T14:02:59;15.10;;;10.80;;
4521;SDS011;2273;48.464;11.926;2023-04-06T14:05:25;15.20;;;11.80;;
4521;SDS011;2273;48.464;11.926;2023-04-06T14:07:52;14.60;;;11.07;;
4521;SDS011;2273;48.464;11.926;2023-04-06T14:10:18;13.27;;;10.23;;
4521;SDS011;2273;48.464;11.926;2023-04-06T14:12:46;14.13;;;10.90;;
4521;SDS011;2273;48.464;11.926;2023-04-06T14:15:11;15.70;;;10.27;;
4521;SDS011;2273;48.464;11.926;2023-04-06T14:17:37;14.90;;;10.77;;
4521;SDS011;2273;48.464;11.926;2023-04-06T14:20:03;17.03;;;11.27;;
4521;SDS011;2273;48.464;11.926;2023-04-06T14:22:32;13.93;;;9.53;;
4521;SDS011;2273;48.464;11.926;2023-04-06T14:24:57;19.00;;;12.10;;
4521;SDS011;2273;48.464;11.926;2023-04-06T14:27:23;15.27;;;11.27;;
4521;SDS011;2273;48.464;11.926;2023-04-06T14:29:49;19.70;;;11.80;;
4521;SDS011;2273;48.464;11.926;2023-04-06T14:32:15;14.33;;;11.60;;
4521;SDS011;2273;48.464;11.926;2023-04-06T14:34:42;13.77;;;10.23;;
4521;SDS011;2273;48.464;11.926;2023-04-06T14:37:07;15.20;;;10.80;;
4521;SDS011;2273;48.464;11.926;2023-04-06T14:39:32;15.10;;;10.77;;
4521;SDS011;2273;48.464;11.926;2023-04-06T14:41:58;14.00;;;10.13;;
4521;SDS011;2273;48.464;11.926;2023-04-06T14:44:23;14.57;;;10.77;;